Time;durP1;ratioP1;P1;durP2;ratioP2;P2;SDS_P1;SDS_P2;PMS_P1;PMS_P2;Temp;Humidity;BMP_temperature;BMP_pressure;BME280_temperature;BME280_humidity;BME280_pressure;Samples;Min_cycle;Max_cycle;Signal;HPM_P1;HPM_P2
2023/03/19 00:01:11;;;;;;;166.00;70.03;;;5.20;99.90;;;;;;10483507;28;20533;-78
2023/03/19 00:06:32;;;;;;;159.63;72.57;;;5.10;99.90;;;;;;10498973;28;20254;-78
2023/03/19 00:11:53;;;;;;;152.77;64.93;;;5.00;99.90;;;;;;10468822;28;20291;-79
2023/03/19 00:17:14;;;;;;;133.00;58.53;;;5.00;99.90;;;;;;10465232;28;20255;-79
2023/03/19 00:22:36;;;;;;;113.80;52.87;;;4.90;99.90;;;;;;10441250;28;20413;-79
2023/03/19 00:27:57;;;;;;;124.60;54.13;;;4.90;99.90;;;;;;10441638;28;20373;-78
2023/03/19 00:33:19;;;;;;;125.47;55.53;;;4.80;99.90;;;;;;10479499;28;20228;-80
2023/03/19 00:38:42;;;;;;;117.23;55.30;;;4.80;99.90;;;;;;10467999;28;20191;-77
2023/03/19 00:44:05;;;;;;;111.20;51.07;;;4.80;99.90;;;;;;10481388;28;20188;-80
2023/03/19 00:49:26;;;;;;;113.70;52.87;;;4.80;99.90;;;;;;10466873;28;20241;-78
2023/03/19 00:54:48;;;;;;;126.10;54.10;;;4.70;99.90;;;;;;10466507;28;20201;-79
2023/03/19 01:00:12;;;;;;;126.57;53.90;;;4.70;99.90;;;;;;10451751;28;20282;-78
2023/03/19 01:05:35;;;;;;;119.83;53.07;;;4.60;99.90;;;;;;10480041;28;20374;-79
2023/03/19 01:10:56;;;;;;;117.43;56.37;;;4.60;99.90;;;;;;10480344;28;20215;-79
2023/03/19 01:16:17;;;;;;;122.70;57.30;;;4.60;99.90;;;;;;10464549;28;20420;-77
2023/03/19 01:21:39;;;;;;;119.30;54.77;;;4.40;99.90;;;;;;10478865;28;20207;-79
2023/03/19 01:27:01;;;;;;;128.67;55.00;;;4.40;99.90;;;;;;10479562;28;20198;-79
2023/03/19 01:32:24;;;;;;;121.77;55.30;;;4.30;99.90;;;;;;10464129;28;20227;-79
2023/03/19 01:38:06;;;;;;;133.83;58.13;;;4.30;99.90;;;;;;10468135;28;20191;-80
2023/03/19 01:43:31;;;;;;;115.00;54.47;;;4.30;99.90;;;;;;10464085;28;20325;-78
2023/03/19 01:49:13;;;;;;;108.77;51.23;;;4.20;99.90;;;;;;10479464;28;20298;-80
2023/03/19 01:54:40;;;;;;;105.87;48.87;;;4.20;99.90;;;;;;10450962;28;20198;-80
2023/03/19 02:00:23;;;;;;;111.33;49.30;;;4.10;99.90;;;;;;10478179;28;20229;-80
2023/03/19 02:05:49;;;;;;;111.63;50.67;;;4.00;99.90;;;;;;10477967;28;20199;-80
2023/03/19 02:11:11;;;;;;;100.37;48.93;;;4.10;99.90;;;;;;10463622;28;20273;-80
2023/03/19 02:16:32;;;;;;;91.67;48.03;;;4.00;99.90;;;;;;10450285;28;20204;-80
2023/03/19 02:21:54;;;;;;;98.83;46.63;;;4.00;99.90;;;;;;10436722;28;20199;-78
2023/03/19 02:27:16;;;;;;;87.77;41.97;;;4.00;99.90;;;;;;10469076;28;20209;-77
2023/03/19 02:32:41;;;;;;;80.07;41.77;;;4.10;99.90;;;;;;10449046;28;20231;-81
2023/03/19 02:38:04;;;;;;;73.97;39.37;;;4.00;99.90;;;;;;10470407;28;20203;-80
2023/03/19 02:43:26;;;;;;;75.47;39.23;;;4.00;99.90;;;;;;10449594;28;20207;-80
2023/03/19 02:48:47;;;;;;;74.77;36.10;;;3.90;99.90;;;;;;10476646;28;20191;-80
2023/03/19 02:54:08;;;;;;;69.57;36.57;;;3.80;99.90;;;;;;10477036;28;20231;-80
2023/03/19 02:59:29;;;;;;;68.50;36.77;;;3.80;99.90;;;;;;10478045;28;20237;-80
2023/03/19 03:04:51;;;;;;;76.27;39.43;;;3.80;99.90;;;;;;10447528;28;20209;-79
2023/03/19 03:10:12;;;;;;;69.03;36.57;;;3.60;99.90;;;;;;10462827;28;20230;-80
2023/03/19 03:15:33;;;;;;;63.67;35.63;;;3.60;99.90;;;;;;10476630;28;20195;-79
2023/03/19 03:20:56;;;;;;;59.37;33.80;;;3.60;99.90;;;;;;10442809;28;20204;-79
2023/03/19 03:26:17;;;;;;;62.43;35.10;;;3.50;99.90;;;;;;10436481;28;20250;-80
2023/03/19 03:31:38;;;;;;;65.40;36.93;;;3.60;99.90;;;;;;10462696;28;20310;-79
2023/03/19 03:36:59;;;;;;;68.83;36.50;;;3.50;99.90;;;;;;10475597;28;20551;-80
2023/03/19 03:42:20;;;;;;;73.40;37.07;;;3.50;99.90;;;;;;10464860;28;20422;-79
2023/03/19 03:47:43;;;;;;;68.20;36.60;;;3.50;99.90;;;;;;10482993;28;20197;-79
2023/03/19 03:53:04;;;;;;;62.93;36.57;;;3.50;99.90;;;;;;10483794;28;20250;-79
2023/03/19 03:58:26;;;;;;;74.70;36.03;;;3.60;99.90;;;;;;10469190;28;20227;-80
2023/03/19 04:03:48;;;;;;;65.37;35.90;;;3.60;99.90;;;;;;10466215;28;20515;-80
2023/03/19 04:09:09;;;;;;;66.27;35.07;;;3.50;99.90;;;;;;10461315;28;20435;-80
2023/03/19 04:14:31;;;;;;;73.97;35.10;;;3.60;99.90;;;;;;10479786;28;20246;-80
2023/03/19 04:19:52;;;;;;;67.03;35.20;;;3.50;99.90;;;;;;10466165;28;20202;-79
2023/03/19 04:25:14;;;;;;;64.03;35.67;;;3.50;99.90;;;;;;10441209;28;20202;-80
2023/03/19 04:30:36;;;;;;;61.97;33.23;;;3.50;99.90;;;;;;10459989;28;20530;-80
2023/03/19 04:35:58;;;;;;;57.13;32.47;;;3.30;99.90;;;;;;10437364;28;20275;-79
2023/03/19 04:41:21;;;;;;;61.77;33.97;;;3.40;99.90;;;;;;10475570;28;20576;-80
2023/03/19 04:46:58;;;;;;;73.97;40.20;;;3.30;99.90;;;;;;10466757;28;20221;-80
2023/03/19 04:52:21;;;;;;;77.93;43.50;;;3.20;99.90;;;;;;10453178;28;20235;-80
2023/03/19 04:57:43;;;;;;;108.00;54.33;;;3.30;99.90;;;;;;10481010;28;20221;-80
2023/03/19 05:03:05;;;;;;;108.03;55.40;;;3.30;99.90;;;;;;10477498;28;20284;-80
2023/03/19 05:08:32;;;;;;;103.27;54.53;;;3.40;99.90;;;;;;10480609;28;20186;-80
2023/03/19 05:13:53;;;;;;;101.23;50.10;;;3.50;99.90;;;;;;10465888;28;20276;-79
2023/03/19 05:19:14;;;;;;;98.93;53.67;;;3.60;99.90;;;;;;10464653;28;20203;-80
2023/03/19 05:24:37;;;;;;;124.87;60.80;;;3.60;99.90;;;;;;10466522;28;20197;-80
2023/03/19 05:30:00;;;;;;;103.40;56.10;;;3.80;99.90;;;;;;10464768;28;20211;-79
2023/03/19 05:35:37;;;;;;;118.67;59.37;;;3.90;99.90;;;;;;10466776;28;20499;-80
2023/03/19 05:41:05;;;;;;;113.37;60.47;;;4.00;99.90;;;;;;10479209;28;20274;-81
2023/03/19 05:46:47;;;;;;;90.50;49.23;;;4.20;99.90;;;;;;10464664;28;20505;-79
2023/03/19 05:52:11;;;;;;;94.90;51.80;;;4.30;99.90;;;;;;10451607;28;20228;-80
2023/03/19 05:57:32;;;;;;;81.77;46.63;;;4.40;99.90;;;;;;10479582;28;20237;-79
2023/03/19 06:03:25;;;;;;;88.77;49.63;;;4.50;99.90;;;;;;10477706;28;20208;-79
2023/03/19 06:08:47;;;;;;;84.50;46.43;;;4.50;99.90;;;;;;10424491;28;20560;-79
2023/03/19 06:14:13;;;;;;;86.63;44.27;;;4.60;99.90;;;;;;10423058;28;20549;-80
2023/03/19 06:19:43;;;;;;;73.67;40.10;;;4.70;99.90;;;;;;10426331;28;20227;-80
2023/03/19 06:25:06;;;;;;;64.73;35.63;;;4.80;99.90;;;;;;10436692;28;20452;-80
2023/03/19 06:30:30;;;;;;;60.70;34.47;;;4.90;99.90;;;;;;10454516;28;20219;-79
2023/03/19 06:35:55;;;;;;;61.43;34.40;;;5.00;99.90;;;;;;10477291;28;20207;-79
2023/03/19 06:41:16;;;;;;;63.37;36.40;;;5.10;99.90;;;;;;10477443;28;20195;-79
2023/03/19 06:46:39;;;;;;;64.57;34.73;;;5.30;99.90;;;;;;10476741;28;20199;-80
2023/03/19 06:52:00;;;;;;;71.10;38.60;;;5.40;99.90;;;;;;10450603;28;20228;-80
2023/03/19 06:57:21;;;;;;;74.03;39.40;;;5.50;99.90;;;;;;10422396;28;20240;-81
2023/03/19 07:02:43;;;;;;;77.30;40.30;;;5.70;99.90;;;;;;10459205;28;20490;-80
2023/03/19 07:08:10;;;;;;;75.77;41.63;;;5.90;99.90;;;;;;10444481;28;20225;-80
2023/03/19 07:13:32;;;;;;;72.40;41.90;;;6.30;99.90;;;;;;10450520;28;20289;-80
2023/03/19 07:18:53;;;;;;;69.93;39.30;;;6.70;99.90;;;;;;10443157;28;20201;-80
2023/03/19 07:24:14;;;;;;;70.67;37.97;;;6.90;99.90;;;;;;10456146;28;20499;-80
2023/03/19 07:29:35;;;;;;;65.73;35.63;;;7.00;99.90;;;;;;10484631;28;20211;-80
2023/03/19 07:34:56;;;;;;;61.87;35.80;;;7.20;99.90;;;;;;10470875;28;20221;-80
2023/03/19 07:40:18;;;;;;;64.63;34.40;;;7.50;99.90;;;;;;10469048;28;20206;-80
2023/03/19 07:45:39;;;;;;;58.57;32.80;;;8.20;99.90;;;;;;10482287;28;20216;-80
2023/03/19 07:51:00;;;;;;;62.57;34.20;;;9.30;95.10;;;;;;10469756;28;20519;-80
2023/03/19 07:56:22;;;;;;;60.10;32.00;;;10.00;90.60;;;;;;10476714;28;20462;-80
2023/03/19 08:01:43;;;;;;;54.50;30.60;;;11.70;62.10;;;;;;10482584;28;20290;-81
2023/03/19 08:07:05;;;;;;;45.47;28.05;;;13.40;41.20;;;;;;10468821;28;20500;-81
2023/03/19 08:12:27;;;;;;;41.03;26.35;;;14.50;31.70;;;;;;10468018;28;20225;-81
2023/03/19 08:17:48;;;;;;;45.67;26.05;;;;;;;;;;10441374;28;20206;-81
2023/03/19 08:23:10;;;;;;;41.28;24.67;;;15.60;32.10;;;;;;10441811;28;20195;-81
2023/03/19 08:28:32;;;;;;;36.05;22.15;;;;;;;;;;10471080;28;20490;-81
2023/03/19 08:33:54;;;;;;;34.88;22.30;;;;;;;;;;10466874;28;20519;-81
2023/03/19 08:39:15;;;;;;;34.50;20.95;;;17.20;21.10;;;;;;10481954;28;20216;-81
2023/03/19 08:44:36;;;;;;;38.42;23.67;;;17.80;20.40;;;;;;10481770;28;20194;-82
2023/03/19 08:49:58;;;;;;;34.63;21.88;;;18.60;19.10;;;;;;10466076;28;20207;-81
2023/03/19 08:55:19;;;;;;;41.17;23.63;;;19.00;31.60;;;;;;10481379;28;20400;-82
2023/03/19 09:00:40;;;;;;;35.20;22.02;;;;;;;;;;10481574;28;20438;-81
2023/03/19 09:12:22;;;;;;;34.20;23.38;;;20.40;15.30;;;;;;10598686;27;20908;-81
2023/03/19 09:17:44;;;;;;;29.33;17.73;;;20.70;15.00;;;;;;10584705;28;20224;-80
2023/03/19 09:23:05;;;;;;;26.73;16.60;;;20.90;14.50;;;;;;10538214;28;20387;-81
2023/03/19 09:28:26;;;;;;;28.20;16.88;;;21.40;14.00;;;;;;10557406;28;20218;-81
2023/03/19 09:33:47;;;;;;;29.40;16.83;;;21.70;13.20;;;;;;10556572;28;20501;-81
2023/03/19 09:39:08;;;;;;;18.63;11.38;;;22.00;12.30;;;;;;10537353;28;20528;-81
2023/03/19 09:44:40;;;;;;;19.77;10.20;;;22.50;11.70;;;;;;10555135;28;20561;-81
2023/03/19 09:50:09;;;;;;;13.05;8.90;;;22.60;11.30;;;;;;10523162;28;20533;-81
2023/03/19 09:55:42;;;;;;;11.13;7.55;;;22.70;10.90;;;;;;10550883;28;20203;-81
2023/03/19 10:01:04;;;;;;;11.52;6.93;;;23.00;10.40;;;;;;10534862;28;20277;-81
2023/03/19 10:06:32;;;;;;;12.18;8.75;;;22.80;10.30;;;;;;10578119;28;20197;-81
2023/03/19 10:12:00;;;;;;;14.10;7.85;;;23.30;10.10;;;;;;10559445;28;20242;-81
2023/03/19 10:17:53;;;;;;;19.15;9.85;;;23.70;9.80;;;;;;10538182;28;20228;-80
2023/03/19 10:23:22;;;;;;;10.27;6.47;;;23.60;9.60;;;;;;10531346;28;20191;-81
2023/03/19 10:28:52;;;;;;;40.47;21.70;;;23.70;9.20;;;;;;10529427;28;20225;-80
2023/03/19 10:34:31;;;;;;;16.35;10.38;;;23.80;8.80;;;;;;10506036;28;20259;-80
2023/03/19 10:39:59;;;;;;;18.50;10.15;;;24.40;8.40;;;;;;10525322;28;20191;-80
2023/03/19 10:45:32;;;;;;;11.18;8.15;;;24.40;8.90;;;;;;10510093;28;20199;-81
2023/03/19 10:51:00;;;;;;;18.25;9.82;;;25.00;8.10;;;;;;10509691;28;20551;-81
2023/03/19 10:56:25;;;;;;;14.30;9.45;;;25.40;7.70;;;;;;10540331;28;20195;-81
2023/03/19 11:01:46;;;;;;;15.43;8.73;;;25.50;8.30;;;;;;10528540;28;20199;-81
2023/03/19 11:07:19;;;;;;;21.73;13.07;;;26.10;7.50;;;;;;10550798;28;20202;-81
2023/03/19 11:12:46;;;;;;;14.07;8.32;;;26.10;6.90;;;;;;10527779;28;20504;-81
2023/03/19 11:18:45;;;;;;;12.80;8.20;;;26.10;7.10;;;;;;10523554;28;20210;-81
2023/03/19 11:24:11;;;;;;;13.55;8.35;;;25.90;7.10;;;;;;10355295;28;20225;-81
2023/03/19 11:29:39;;;;;;;14.55;8.73;;;26.40;7.50;;;;;;10373259;28;20307;-81
2023/03/19 11:35:06;;;;;;;12.15;7.63;;;26.50;6.40;;;;;;10398031;28;20208;-81
2023/03/19 11:40:38;;;;;;;15.52;8.20;;;26.40;6.40;;;;;;10397549;28;20204;-80
2023/03/19 11:46:25;;;;;;;8.70;6.35;;;26.30;6.50;;;;;;10394799;28;20204;-81
2023/03/19 11:52:01;;;;;;;12.63;7.18;;;26.20;6.80;;;;;;10394250;28;20282;-81
2023/03/19 11:57:47;;;;;;;12.35;7.88;;;26.20;7.20;;;;;;10509201;28;20256;-82
2023/03/19 12:03:33;;;;;;;13.25;7.90;;;26.00;7.00;;;;;;10559630;28;20182;-81
2023/03/19 12:09:05;;;;;;;9.48;6.90;;;25.40;7.50;;;;;;10519288;28;20318;-81
2023/03/19 12:14:37;;;;;;;8.00;6.45;;;24.90;7.90;;;;;;10548148;28;20489;-81
2023/03/19 12:20:05;;;;;;;11.75;7.25;;;24.50;8.70;;;;;;10551047;28;20212;-81
2023/03/19 12:25:47;;;;;;;8.25;5.85;;;24.80;8.20;;;;;;10540008;28;20243;-81
2023/03/19 12:31:25;;;;;;;8.20;5.35;;;24.10;9.20;;;;;;10547788;28;20248;-81
2023/03/19 12:37:14;;;;;;;10.93;5.00;;;22.80;10.40;;;;;;10537235;28;20199;-81
2023/03/19 12:42:38;;;;;;;9.73;5.45;;;22.70;11.70;;;;;;10554536;28;20190;-80
2023/03/19 12:48:26;;;;;;;9.18;5.28;;;22.90;11.10;;;;;;10562203;28;20202;-80
2023/03/19 12:53:56;;;;;;;7.82;5.00;;;22.70;11.50;;;;;;10505516;28;20191;-82
2023/03/19 12:59:39;;;;;;;10.32;4.93;;;22.70;11.30;;;;;;10535487;28;20198;-80
2023/03/19 13:05:35;;;;;;;9.43;4.65;;;22.60;11.60;;;;;;10518254;28;20203;-81
2023/03/19 13:10:58;;;;;;;8.23;5.00;;;22.60;11.80;;;;;;10414288;28;20279;-81
2023/03/19 13:16:30;;;;;;;9.68;7.15;;;22.10;12.00;;;;;;10433435;28;20242;-81
2023/03/19 13:21:54;;;;;;;7.13;4.30;;;21.30;13.00;;;;;;10431579;28;20247;-79
2023/03/19 13:27:39;;;;;;;8.93;4.97;;;20.90;13.70;;;;;;10433000;28;20210;-81
2023/03/19 13:33:02;;;;;;;7.43;5.10;;;20.50;14.60;;;;;;10419017;28;20254;-80
2023/03/19 13:38:27;;;;;;;10.82;5.00;;;20.50;14.90;;;;;;10432410;28;20216;-80
2023/03/19 13:43:52;;;;;;;6.80;4.25;;;20.50;14.60;;;;;;10421808;28;20211;-80
2023/03/19 13:49:48;;;;;;;9.10;4.95;;;20.80;14.70;;;;;;10518775;28;20238;-81
2023/03/19 13:55:25;;;;;;;9.38;6.22;;;20.60;14.40;;;;;;10375456;28;20292;-80
2023/03/19 14:00:57;;;;;;;11.88;5.63;;;20.70;15.10;;;;;;10399555;28;20527;-80
2023/03/19 14:06:28;;;;;;;9.60;4.68;;;20.80;15.20;;;;;;10379077;28;20200;-80
2023/03/19 14:11:49;;;;;;;5.88;4.07;;;20.40;15.50;;;;;;10382059;28;20263;-80
2023/03/19 14:17:26;;;;;;;11.43;4.47;;;20.10;16.30;;;;;;10368442;28;20208;-80
2023/03/19 14:23:11;;;;;;;6.88;4.38;;;19.70;16.90;;;;;;10397422;28;20535;-81
2023/03/19 14:28:40;;;;;;;11.40;5.03;;;19.40;17.60;;;;;;10445722;28;20237;-81
2023/03/19 14:34:27;;;;;;;12.30;4.88;;;19.10;17.70;;;;;;10571593;28;20353;-80
2023/03/19 14:39:56;;;;;;;13.73;7.18;;;18.90;18.00;;;;;;10566985;28;20206;-80
2023/03/19 14:45:35;;;;;;;10.45;5.38;;;18.90;18.70;;;;;;10551514;28;20197;-80
2023/03/19 14:50:59;;;;;;;5.78;4.22;;;18.60;18.70;;;;;;10573622;28;20223;-80
2023/03/19 14:56:29;;;;;;;8.07;4.75;;;18.40;19.20;;;;;;10511520;28;20183;-79
2023/03/19 15:01:53;;;;;;;9.98;4.72;;;18.30;19.80;;;;;;10511975;28;20218;-80
2023/03/19 15:07:28;;;;;;;10.10;6.05;;;18.20;20.10;;;;;;10533999;28;20198;-79
2023/03/19 15:13:10;;;;;;;9.88;6.30;;;18.00;20.30;;;;;;10530310;28;20424;-79
2023/03/19 15:18:31;;;;;;;9.55;5.13;;;17.80;21.10;;;;;;10509087;28;20191;-80
2023/03/19 15:23:52;;;;;;;12.75;5.97;;;17.60;21.80;;;;;;10508113;28;20214;-80
2023/03/19 15:29:13;;;;;;;11.95;5.82;;;17.50;22.40;;;;;;10512731;28;20222;-80
2023/03/19 15:34:36;;;;;;;15.10;8.02;;;17.30;23.60;;;;;;10571745;28;20269;-80
2023/03/19 15:40:00;;;;;;;16.27;8.82;;;17.20;24.30;;;;;;10550058;28;20190;-79
2023/03/19 15:45:23;;;;;;;21.17;10.55;;;17.10;25.40;;;;;;10535843;28;20425;-79
2023/03/19 15:50:48;;;;;;;35.33;20.58;;;17.00;26.30;;;;;;10491913;28;20249;-80
2023/03/19 15:56:13;;;;;;;31.10;16.77;;;16.80;27.40;;;;;;10529430;28;20209;-80
2023/03/19 16:01:34;;;;;;;35.63;16.85;;;16.70;29.60;;;;;;10536662;28;20200;-81
2023/03/19 16:06:57;;;;;;;48.47;26.23;;;16.50;31.40;;;;;;10548296;28;20197;-80
2023/03/19 16:12:36;;;;;;;34.33;19.45;;;16.30;34.80;;;;;;10528285;28;20232;-80
2023/03/19 16:18:16;;;;;;;45.85;26.92;;;16.20;37.90;;;;;;10506412;28;20205;-81
2023/03/19 16:23:44;;;;;;;47.83;24.48;;;16.10;41.20;;;;;;10506416;28;20369;-82
2023/03/19 16:29:14;;;;;;;60.10;29.95;;;16.00;44.80;;;;;;10502879;28;20234;-81
2023/03/19 16:34:45;;;;;;;50.45;29.00;;;15.90;46.10;;;;;;10526910;28;20196;-80
2023/03/19 16:40:13;;;;;;;45.83;24.60;;;15.90;47.70;;;;;;10547799;28;20216;-82
2023/03/19 16:45:34;;;;;;;32.28;20.05;;;15.80;61.60;;;;;;10509526;28;20200;-79
2023/03/19 16:50:57;;;;;;;32.13;16.52;;;15.80;90.10;;;;;;10521776;28;20233;-80
2023/03/19 16:56:19;;;;;;;24.65;15.35;;;15.60;95.00;;;;;;10507367;28;20191;-79
2023/03/19 17:01:41;;;;;;;23.63;13.55;;;15.50;98.40;;;;;;10516852;28;20212;-80
2023/03/19 17:07:02;;;;;;;26.30;15.98;;;15.40;98.20;;;;;;10532661;28;20485;-80
2023/03/19 17:12:23;;;;;;;30.73;19.05;;;15.20;98.60;;;;;;10494209;28;20296;-79
2023/03/19 17:17:45;;;;;;;38.28;22.65;;;15.10;99.90;;;;;;10501805;28;20204;-79
2023/03/19 17:23:11;;;;;;;39.50;23.08;;;14.90;99.90;;;;;;10502019;28;20193;-80
2023/03/19 17:28:32;;;;;;;44.05;26.30;;;14.70;99.90;;;;;;10501458;28;20211;-79
2023/03/19 17:34:05;;;;;;;40.78;25.27;;;14.60;99.90;;;;;;10524935;28;20221;-79
2023/03/19 17:39:31;;;;;;;40.70;23.80;;;14.60;99.90;;;;;;10554472;28;20210;-79
2023/03/19 17:44:55;;;;;;;35.58;18.55;;;14.50;99.90;;;;;;10513644;28;20251;-79
2023/03/19 17:50:25;;;;;;;27.83;16.00;;;14.40;98.90;;;;;;10526248;28;20229;-80
2023/03/19 17:55:46;;;;;;;26.95;16.17;;;14.50;98.40;;;;;;10500131;28;20297;-79
2023/03/19 18:01:18;;;;;;;21.77;13.38;;;14.50;96.20;;;;;;10522149;28;20284;-79
2023/03/19 18:06:43;;;;;;;28.05;13.10;;;14.40;98.90;;;;;;10568474;28;20221;-81
2023/03/19 18:12:04;;;;;;;18.15;11.20;;;14.20;99.90;;;;;;10535953;28;20290;-81
2023/03/19 18:17:30;;;;;;;16.65;12.05;;;13.90;99.90;;;;;;10525924;28;20377;-81
2023/03/19 18:23:04;;;;;;;22.17;13.73;;;13.80;99.90;;;;;;10537366;28;20428;-81
2023/03/19 18:28:27;;;;;;;27.50;17.20;;;13.60;99.90;;;;;;10507669;28;20225;-80
2023/03/19 18:33:55;;;;;;;41.28;27.85;;;13.50;99.90;;;;;;10536361;28;20199;-81
2023/03/19 18:39:16;;;;;;;47.45;33.00;;;13.40;99.90;;;;;;10567418;28;20191;-81
2023/03/19 18:44:38;;;;;;;69.68;44.08;;;13.30;99.90;;;;;;10543255;28;20216;-81
2023/03/19 18:49:59;;;;;;;81.10;51.58;;;13.20;99.90;;;;;;10534539;28;20528;-81
2023/03/19 18:55:27;;;;;;;81.90;52.70;;;13.10;99.90;;;;;;10548779;28;20220;-79
2023/03/19 19:00:50;;;;;;;75.22;50.35;;;13.00;99.90;;;;;;10532010;28;20195;-79
2023/03/19 19:06:21;;;;;;;68.28;46.33;;;12.90;99.90;;;;;;10566186;28;20257;-81
2023/03/19 19:11:48;;;;;;;62.17;40.83;;;12.90;14.70;;;;;;10526461;28;20255;-80
2023/03/19 19:17:22;;;;;;;58.58;38.25;;;12.80;15.50;;;;;;10512702;28;20315;-81
2023/03/19 19:22:44;;;;;;;61.05;37.72;;;12.70;26.40;;;;;;10523444;28;20477;-80
2023/03/19 19:28:32;;;;;;;69.93;42.77;;;12.60;61.60;;;;;;10526319;28;20217;-81
2023/03/19 19:33:54;;;;;;;91.93;55.65;;;12.60;70.80;;;;;;10552519;28;20499;-81
2023/03/19 19:39:16;;;;;;;91.80;49.42;;;12.50;73.80;;;;;;10564884;28;20193;-81
2023/03/19 19:44:37;;;;;;;81.95;47.70;;;12.50;48.50;;;;;;10556974;28;20210;-81
2023/03/19 19:49:58;;;;;;;78.25;44.20;;;12.40;96.50;;;;;;10522377;28;20223;-80
2023/03/19 19:55:19;;;;;;;63.90;37.70;;;12.30;97.70;;;;;;10489541;28;20220;-81
2023/03/19 20:00:41;;;;;;;54.40;32.42;;;12.30;84.90;;;;;;10516879;28;20206;-81
2023/03/19 20:06:07;;;;;;;47.10;28.60;;;12.20;99.90;;;;;;10531616;28;20287;-81
2023/03/19 20:11:29;;;;;;;53.88;29.02;;;12.10;99.90;;;;;;10478664;28;20253;-80
2023/03/19 20:16:50;;;;;;;46.53;28.83;;;12.10;99.90;;;;;;10490631;28;20237;-81
2023/03/19 20:22:12;;;;;;;45.07;29.30;;;12.10;99.90;;;;;;10479707;28;20202;-81
2023/03/19 20:27:33;;;;;;;50.83;31.10;;;12.00;99.90;;;;;;10478045;28;20209;-81
2023/03/19 20:32:55;;;;;;;54.75;32.85;;;12.00;99.90;;;;;;10500017;28;20229;-80
2023/03/19 20:38:16;;;;;;;54.03;32.63;;;11.90;99.90;;;;;;10519358;28;20210;-81
2023/03/19 20:43:37;;;;;;;50.07;32.93;;;11.80;99.90;;;;;;10500261;28;20198;-81
2023/03/19 20:49:00;;;;;;;53.80;31.63;;;11.80;99.90;;;;;;10463586;28;20198;-81
2023/03/19 20:54:22;;;;;;;50.70;30.80;;;11.80;99.90;;;;;;10477456;28;20189;-81
2023/03/19 20:59:45;;;;;;;43.05;28.80;;;11.80;99.90;;;;;;10476724;28;20207;-81
2023/03/19 21:05:07;;;;;;;37.20;25.20;;;11.70;99.90;;;;;;10478387;28;20382;-80
2023/03/19 21:10:43;;;;;;;50.70;32.87;;;11.70;99.90;;;;;;10523007;28;20291;-80
2023/03/19 21:16:18;;;;;;;62.40;41.57;;;11.70;99.90;;;;;;10521253;28;20277;-81
2023/03/19 21:21:41;;;;;;;72.07;43.97;;;11.70;99.90;;;;;;10504596;28;20198;-79
2023/03/19 21:27:02;;;;;;;67.10;41.57;;;11.70;99.90;;;;;;10504328;28;20205;-81
2023/03/19 21:32:23;;;;;;;67.33;41.50;;;11.70;99.90;;;;;;10542072;28;20265;-81
2023/03/19 21:37:46;;;;;;;66.77;41.17;;;11.60;99.90;;;;;;10529051;28;20201;-80
2023/03/19 21:43:35;;;;;;;70.50;44.80;;;11.60;99.90;;;;;;10509169;28;20210;-81
2023/03/19 21:48:57;;;;;;;83.70;49.47;;;11.60;99.90;;;;;;10534685;28;20228;-80
2023/03/19 21:54:19;;;;;;;92.73;55.80;;;11.50;99.90;;;;;;10545579;28;20231;-81
2023/03/19 21:59:41;;;;;;;97.28;58.17;;;11.40;99.90;;;;;;10542361;28;20240;-81
2023/03/19 22:05:17;;;;;;;95.30;57.80;;;11.40;99.90;;;;;;10545690;28;20484;-81
2023/03/19 22:10:40;;;;;;;85.97;51.72;;;11.40;99.90;;;;;;10545296;28;20245;-81
2023/03/19 22:16:01;;;;;;;97.07;54.83;;;11.30;99.90;;;;;;10544978;28;20202;-81
2023/03/19 22:21:22;;;;;;;80.37;50.30;;;11.30;99.90;;;;;;10508051;28;20207;-81
2023/03/19 22:26:45;;;;;;;96.43;54.20;;;11.20;99.90;;;;;;10508108;28;20196;-81
2023/03/19 22:32:15;;;;;;;98.40;55.53;;;11.20;99.90;;;;;;10534163;28;20279;-81
2023/03/19 22:37:37;;;;;;;91.07;52.43;;;11.10;99.90;;;;;;10552077;28;20264;-81
2023/03/19 22:42:58;;;;;;;73.23;44.80;;;11.10;99.90;;;;;;10552299;28;20193;-80
2023/03/19 22:48:20;;;;;;;66.17;40.63;;;11.00;99.90;;;;;;10511207;28;20205;-81
2023/03/19 22:53:42;;;;;;;62.50;40.67;;;10.90;99.90;;;;;;10493433;28;20232;-81
2023/03/19 22:59:03;;;;;;;66.80;43.30;;;10.70;99.90;;;;;;10524563;28;20189;-81
2023/03/19 23:04:29;;;;;;;69.53;43.40;;;10.60;99.90;;;;;;10544378;28;20267;-80
2023/03/19 23:09:50;;;;;;;71.60;42.77;;;10.50;99.90;;;;;;10537166;28;20247;-81
2023/03/19 23:15:11;;;;;;;77.50;46.37;;;10.40;99.90;;;;;;10537566;28;20312;-80
2023/03/19 23:20:33;;;;;;;75.73;47.30;;;10.40;99.90;;;;;;10509056;28;20201;-81
2023/03/19 23:25:55;;;;;;;73.43;45.93;;;10.40;99.90;;;;;;10491912;28;20246;-81
2023/03/19 23:31:15;;;;;;;77.03;46.63;;;10.40;99.90;;;;;;10512476;28;20224;-80
2023/03/19 23:36:36;;;;;;;67.83;42.53;;;10.30;99.90;;;;;;10546822;28;20250;-81
2023/03/19 23:41:59;;;;;;;66.20;42.60;;;10.30;99.90;;;;;;10510113;28;20228;-80
2023/03/19 23:47:20;;;;;;;70.57;42.23;;;10.20;99.90;;;;;;10507875;28;20212;-81
2023/03/19 23:52:41;;;;;;;68.87;43.13;;;10.10;99.90;;;;;;10522359;28;20238;-81
2023/03/19 23:58:02;;;;;;;67.87;40.63;;;10.10;99.90;;;;;;10521996;28;20201;-81
